createdAt,value
2022-12-08T00:00:26.928Z,5.32
2022-12-08T00:02:54.860Z,5.29
2022-12-08T00:05:41.738Z,5.43
2022-12-08T00:08:28.817Z,5.55
2022-12-08T00:10:56.462Z,5.60
2022-12-08T00:13:24.057Z,5.64
2022-12-08T00:15:51.716Z,5.68
2022-12-08T00:18:19.263Z,5.47
2022-12-08T00:20:55.074Z,5.57
2022-12-08T00:23:22.656Z,5.57
2022-12-08T00:25:50.327Z,5.20
2022-12-08T00:28:18.253Z,5.37
2022-12-08T00:30:46.221Z,5.43
2022-12-08T00:33:13.989Z,5.31
2022-12-08T00:35:43.307Z,5.13
2022-12-08T00:38:11.086Z,5.11
2022-12-08T00:40:38.695Z,5.06
2022-12-08T00:43:06.263Z,4.96
2022-12-08T00:45:33.941Z,4.93
2022-12-08T00:48:01.581Z,4.85
2022-12-08T00:50:29.305Z,4.73
2022-12-08T00:52:56.911Z,4.64
2022-12-08T00:55:24.641Z,4.55
2022-12-08T00:57:52.357Z,4.44
2022-12-08T01:00:46.049Z,4.32
2022-12-08T01:03:14.625Z,4.19
2022-12-08T01:05:42.567Z,4.12
2022-12-08T01:08:10.353Z,4.05
2022-12-08T01:10:39.680Z,3.90
2022-12-08T01:13:07.176Z,3.91
2022-12-08T01:15:34.895Z,3.84
2022-12-08T01:18:02.813Z,3.77
2022-12-08T01:20:30.360Z,3.68
2022-12-08T01:22:57.999Z,3.71
2022-12-08T01:25:25.851Z,3.66
2022-12-08T01:27:54.111Z,3.51
2022-12-08T01:30:22.559Z,3.67
2022-12-08T01:32:50.192Z,3.49
2022-12-08T01:35:17.878Z,3.41
2022-12-08T01:37:45.557Z,3.49
2022-12-08T01:40:13.250Z,3.35
2022-12-08T01:42:40.844Z,3.31
2022-12-08T01:45:32.043Z,3.27
2022-12-08T01:48:08.515Z,3.15
2022-12-08T01:50:37.866Z,3.07
2022-12-08T01:53:23.923Z,2.93
2022-12-08T01:55:54.126Z,2.92
2022-12-08T01:58:33.053Z,2.81
2022-12-08T02:01:00.793Z,2.79
2022-12-08T02:03:35.631Z,2.76
2022-12-08T02:06:04.364Z,2.83
2022-12-08T02:08:33.921Z,2.79
2022-12-08T02:11:11.428Z,2.81
2022-12-08T02:13:42.988Z,2.86
2022-12-08T02:16:46.959Z,2.88
2022-12-08T02:19:46.264Z,2.77
2022-12-08T02:22:22.386Z,2.88
2022-12-08T02:25:26.992Z,2.74
2022-12-08T02:28:35.312Z,2.73
2022-12-08T02:31:26.595Z,2.68
2022-12-08T02:34:00.274Z,2.60
2022-12-08T02:36:48.858Z,2.58
2022-12-08T02:40:05.830Z,2.52
2022-12-08T02:42:53.552Z,2.54
2022-12-08T02:45:44.790Z,2.44
2022-12-08T02:48:13.074Z,2.34
2022-12-08T02:50:40.679Z,2.34
2022-12-08T02:56:00.606Z,2.41
2022-12-08T02:58:56.555Z,2.43
2022-12-08T03:01:40.224Z,2.42
2022-12-08T03:04:34.832Z,2.39
2022-12-08T03:07:24.769Z,2.26
2022-12-08T03:10:00.187Z,2.24
2022-12-08T03:12:40.292Z,2.24
2022-12-08T03:15:13.674Z,2.03
2022-12-08T03:17:45.939Z,2.02
2022-12-08T03:20:20.992Z,1.89
2022-12-08T03:22:51.004Z,1.95
2022-12-08T03:25:24.430Z,1.87
2022-12-08T03:27:52.432Z,2.00
2022-12-08T03:30:20.146Z,2.06
2022-12-08T03:33:02.388Z,2.08
2022-12-08T03:35:34.201Z,2.05
2022-12-08T03:38:13.241Z,1.96
2022-12-08T03:40:41.429Z,2.05
2022-12-08T03:43:09.560Z,1.92
2022-12-08T03:45:37.450Z,1.91
2022-12-08T03:48:05.191Z,1.77
2022-12-08T03:50:32.736Z,1.50
2022-12-08T03:53:00.371Z,1.52
2022-12-08T03:55:28.159Z,1.56
2022-12-08T03:57:55.836Z,1.57
2022-12-08T04:00:23.818Z,1.58
2022-12-08T04:02:54.079Z,1.58
2022-12-08T04:05:22.039Z,1.51
2022-12-08T04:07:49.828Z,1.50
2022-12-08T04:10:17.651Z,1.48
2022-12-08T04:12:45.267Z,1.61
2022-12-08T04:15:12.980Z,1.60
2022-12-08T04:17:40.962Z,1.63
2022-12-08T04:20:08.922Z,1.68
2022-12-08T04:22:36.471Z,1.70
2022-12-08T04:25:04.756Z,1.64
2022-12-08T04:27:32.353Z,1.68
2022-12-08T04:29:59.962Z,1.69
2022-12-08T04:32:27.546Z,1.66
2022-12-08T04:34:55.461Z,1.71
2022-12-08T04:37:23.115Z,1.69
2022-12-08T04:39:51.042Z,1.68
2022-12-08T04:42:18.594Z,1.60
2022-12-08T04:44:46.138Z,1.40
2022-12-08T04:47:13.761Z,1.21
2022-12-08T04:49:41.588Z,1.37
2022-12-08T04:52:09.190Z,1.34
2022-12-08T04:54:36.827Z,1.39
2022-12-08T04:57:04.608Z,1.38
2022-12-08T04:59:32.309Z,1.37
2022-12-08T05:02:00.059Z,1.43
2022-12-08T05:04:28.087Z,1.44
2022-12-08T05:06:55.892Z,1.43
2022-12-08T05:09:23.759Z,1.36
2022-12-08T05:11:51.375Z,1.34
2022-12-08T05:14:24.615Z,1.35
2022-12-08T05:16:52.305Z,1.34
2022-12-08T05:19:20.095Z,1.28
2022-12-08T05:21:47.836Z,1.28
2022-12-08T05:24:15.616Z,1.28
2022-12-08T05:26:43.250Z,1.21
2022-12-08T05:29:10.801Z,1.21
2022-12-08T05:31:38.510Z,1.19
2022-12-08T05:34:06.705Z,1.17
2022-12-08T05:36:34.405Z,1.18
2022-12-08T05:39:02.429Z,1.18
2022-12-08T05:41:30.134Z,1.18
2022-12-08T05:43:57.820Z,1.14
2022-12-08T05:46:25.589Z,1.08
2022-12-08T05:48:53.351Z,1.10
2022-12-08T05:51:24.484Z,1.10
2022-12-08T05:53:53.311Z,1.08
2022-12-08T05:56:21.845Z,1.09
2022-12-08T05:58:50.195Z,1.05
2022-12-08T06:01:28.661Z,1.03
2022-12-08T06:03:59.732Z,1.02
2022-12-08T06:06:28.806Z,1.01
2022-12-08T06:08:56.716Z,0.98
2022-12-08T06:11:30.387Z,1.01
2022-12-08T06:13:58.250Z,0.94
2022-12-08T06:16:28.479Z,0.88
2022-12-08T06:18:56.911Z,0.87
2022-12-08T06:21:25.324Z,0.87
2022-12-08T06:23:54.611Z,0.85
2022-12-08T06:26:22.907Z,0.83
2022-12-08T06:28:51.583Z,0.81
2022-12-08T06:31:25.049Z,0.80
2022-12-08T06:33:54.191Z,0.74
2022-12-08T06:36:25.627Z,0.69
2022-12-08T06:38:53.591Z,0.71
2022-12-08T06:41:21.905Z,0.70
2022-12-08T06:43:49.630Z,0.56
2022-12-08T06:46:20.024Z,0.51
2022-12-08T06:48:48.024Z,0.68
2022-12-08T06:51:19.800Z,0.74
2022-12-08T06:53:47.845Z,0.72
2022-12-08T06:56:16.624Z,0.60
2022-12-08T06:58:50.454Z,0.67
2022-12-08T07:01:20.379Z,0.70
2022-12-08T07:03:48.824Z,0.73
2022-12-08T07:06:23.401Z,0.69
2022-12-08T07:08:51.398Z,0.70
2022-12-08T07:11:22.439Z,0.66
2022-12-08T07:13:51.010Z,0.67
2022-12-08T07:16:19.247Z,0.59
2022-12-08T07:18:47.070Z,0.64
2022-12-08T07:21:15.168Z,0.64
2022-12-08T07:23:46.162Z,0.66
2022-12-08T07:26:14.331Z,0.66
2022-12-08T07:28:43.030Z,0.66
2022-12-08T07:31:21.057Z,0.68
2022-12-08T07:33:50.303Z,0.69
2022-12-08T07:36:18.035Z,0.71
2022-12-08T07:38:46.329Z,0.53
2022-12-08T07:41:17.281Z,0.59
2022-12-08T07:43:45.436Z,0.67
2022-12-08T07:46:16.368Z,0.56
2022-12-08T07:48:44.231Z,0.56
2022-12-08T07:51:14.413Z,0.46
2022-12-08T07:53:49.854Z,0.37
2022-12-08T07:56:21.553Z,0.60
2022-12-08T07:58:49.421Z,0.75
2022-12-08T08:01:29.485Z,0.91
2022-12-08T08:04:04.281Z,0.98
2022-12-08T08:06:34.792Z,1.00
2022-12-08T08:09:02.799Z,0.88
2022-12-08T08:11:30.537Z,0.99
2022-12-08T08:13:58.732Z,0.84
2022-12-08T08:16:26.919Z,0.81
2022-12-08T08:18:55.120Z,1.07
2022-12-08T08:21:45.530Z,1.11
2022-12-08T08:24:11.116Z,1.22
2022-12-08T08:26:39.706Z,1.37
2022-12-08T08:29:07.400Z,1.46
2022-12-08T08:31:35.115Z,1.49
2022-12-08T08:34:06.258Z,1.42
2022-12-08T08:36:34.377Z,1.19
2022-12-08T08:39:02.714Z,1.24
2022-12-08T08:41:30.622Z,1.11
2022-12-08T08:43:58.226Z,1.62
2022-12-08T08:46:25.840Z,1.88
2022-12-08T08:48:53.546Z,2.05
2022-12-08T08:51:21.425Z,1.97
2022-12-08T08:53:49.263Z,2.12
2022-12-08T08:56:19.417Z,2.24
2022-12-08T08:58:50.089Z,2.31
2022-12-08T09:01:26.735Z,2.26
2022-12-08T09:03:55.807Z,2.04
2022-12-08T09:06:24.155Z,2.37
2022-12-08T09:08:52.336Z,2.40
2022-12-08T09:11:20.192Z,2.41
2022-12-08T09:13:54.987Z,2.66
2022-12-08T09:16:23.864Z,2.79
2022-12-08T09:18:52.217Z,2.93
2022-12-08T09:21:23.800Z,2.62
2022-12-08T09:23:56.879Z,2.59
2022-12-08T09:26:26.372Z,2.72
2022-12-08T09:28:55.994Z,2.84
2022-12-08T09:31:24.789Z,3.17
2022-12-08T09:33:53.411Z,3.20
2022-12-08T09:36:21.526Z,3.32
2022-12-08T09:38:50.333Z,3.54
2022-12-08T09:41:48.748Z,3.58
2022-12-08T09:44:50.606Z,3.97
2022-12-08T09:47:37.731Z,4.11
2022-12-08T09:50:26.934Z,4.05
2022-12-08T09:53:39.599Z,4.38
2022-12-08T09:56:20.986Z,4.45
2022-12-08T09:58:57.264Z,4.39
2022-12-08T10:01:31.609Z,4.46
2022-12-08T10:04:00.731Z,4.45
2022-12-08T10:06:41.936Z,4.39
2022-12-08T10:09:37.695Z,4.07
2022-12-08T10:12:23.292Z,4.64
2022-12-08T10:15:39.162Z,4.87
2022-12-08T10:18:32.064Z,5.11
2022-12-08T10:21:29.132Z,5.26
2022-12-08T10:24:04.851Z,5.40
2022-12-08T10:26:33.012Z,5.36
2022-12-08T10:29:03.041Z,5.19
2022-12-08T10:31:32.068Z,5.55
2022-12-08T10:34:14.432Z,5.45
2022-12-08T10:37:00.867Z,5.79
2022-12-08T10:39:38.415Z,5.72
2022-12-08T10:42:15.481Z,6.00
2022-12-08T10:44:59.720Z,6.11
2022-12-08T10:47:29.835Z,6.33
2022-12-08T10:50:31.638Z,6.09
2022-12-08T10:53:08.498Z,5.40
2022-12-08T10:55:47.189Z,5.47
2022-12-08T10:58:46.470Z,4.93
2022-12-08T11:01:33.009Z,5.54
2022-12-08T11:04:04.781Z,5.52
2022-12-08T11:06:38.397Z,5.72
2022-12-08T11:09:18.620Z,5.82
2022-12-08T11:12:12.746Z,6.33
2022-12-08T11:14:43.625Z,5.98
2022-12-08T11:17:22.346Z,6.30
2022-12-08T11:20:06.530Z,6.66
2022-12-08T11:22:47.044Z,6.37
2022-12-08T11:25:28.414Z,5.86
2022-12-08T11:28:01.621Z,5.31
2022-12-08T11:30:36.897Z,5.82
2022-12-08T11:33:21.463Z,5.28
2022-12-08T11:36:05.573Z,5.32
2022-12-08T11:38:41.188Z,5.87
2022-12-08T11:41:18.047Z,5.61
2022-12-08T11:44:32.364Z,5.97
2022-12-08T11:47:15.993Z,6.59
2022-12-08T11:52:34.071Z,6.49
2022-12-08T11:55:49.944Z,6.79
2022-12-08T11:58:29.422Z,7.30
2022-12-08T12:00:57.962Z,7.79
2022-12-08T12:03:40.661Z,8.30
2022-12-08T12:06:54.921Z,8.48
2022-12-08T12:09:35.499Z,8.80
2022-12-08T12:12:27.048Z,9.01
2022-12-08T12:15:16.566Z,8.96
2022-12-08T12:17:59.837Z,8.89
2022-12-08T12:20:52.616Z,8.98
2022-12-08T12:23:36.038Z,8.93
2022-12-08T12:26:07.320Z,8.99
2022-12-08T12:28:49.903Z,8.83
2022-12-08T12:31:23.453Z,8.31
2022-12-08T12:33:57.409Z,8.40
2022-12-08T12:36:25.845Z,8.66
2022-12-08T12:39:01.879Z,9.19
2022-12-08T12:41:59.492Z,10.01
2022-12-08T12:44:29.914Z,10.83
2022-12-08T12:47:01.204Z,11.47
2022-12-08T12:49:41.119Z,12.09
2022-12-08T12:52:26.454Z,10.61
2022-12-08T12:54:56.834Z,11.41
2022-12-08T12:57:35.950Z,11.69
2022-12-08T13:00:03.617Z,11.19
2022-12-08T13:02:46.363Z,12.78
2022-12-08T13:05:27.499Z,12.93
2022-12-08T13:07:57.655Z,12.72
2022-12-08T13:10:31.695Z,11.82
2022-12-08T13:13:18.213Z,11.55
2022-12-08T13:16:17.201Z,11.27
2022-12-08T13:18:52.890Z,12.59
2022-12-08T13:21:23.705Z,12.97
2022-12-08T13:24:14.139Z,12.80
2022-12-08T13:26:49.364Z,12.04
2022-12-08T13:29:26.022Z,10.63
2022-12-08T13:32:06.984Z,12.13
2022-12-08T13:34:56.334Z,13.53
2022-12-08T13:37:54.433Z,14.59
2022-12-08T13:40:28.162Z,13.87
2022-12-08T13:43:13.413Z,12.04
2022-12-08T13:46:48.728Z,11.17
2022-12-08T13:57:30.668Z,7.85
2022-12-08T14:00:16.511Z,8.56
2022-12-08T14:02:51.653Z,8.73
2022-12-08T14:05:35.269Z,9.42
2022-12-08T14:11:36.574Z,8.40
2022-12-08T14:14:23.065Z,8.28
2022-12-08T14:17:10.630Z,8.14
2022-12-08T14:19:38.683Z,8.42
2022-12-08T14:22:16.532Z,8.37
2022-12-08T14:24:53.910Z,8.95
2022-12-08T14:27:25.379Z,9.43
2022-12-08T14:29:58.551Z,10.00
2022-12-08T14:32:58.989Z,9.92
2022-12-08T14:35:32.954Z,9.39
2022-12-08T14:38:16.259Z,8.32
2022-12-08T14:40:47.219Z,8.02
2022-12-08T14:43:19.784Z,7.38
2022-12-08T14:45:54.219Z,6.94
2022-12-08T14:48:33.688Z,7.03
2022-12-08T14:51:19.415Z,7.04
2022-12-08T14:54:13.996Z,6.20
2022-12-08T14:56:56.861Z,6.48
2022-12-08T14:59:35.681Z,6.53
2022-12-08T15:02:22.657Z,6.57
2022-12-08T15:05:12.144Z,6.50
2022-12-08T15:07:48.645Z,6.65
2022-12-08T15:10:16.329Z,6.66
2022-12-08T15:13:11.379Z,6.00
2022-12-08T15:15:56.296Z,6.01
2022-12-08T15:18:41.138Z,6.22
2022-12-08T15:21:13.006Z,6.18
2022-12-08T15:23:45.805Z,6.34
2022-12-08T15:26:23.343Z,6.28
2022-12-08T15:28:51.321Z,6.11
2022-12-08T15:31:19.535Z,5.92
2022-12-08T15:33:47.473Z,5.89
2022-12-08T15:36:15.161Z,6.08
2022-12-08T15:38:44.300Z,5.68
2022-12-08T15:41:15.111Z,5.95
2022-12-08T15:43:43.090Z,5.91
2022-12-08T15:46:11.797Z,5.77
2022-12-08T15:48:39.688Z,5.50
2022-12-08T15:51:07.507Z,5.80
2022-12-08T15:53:35.193Z,5.72
2022-12-08T15:58:56.855Z,5.52
2022-12-08T16:01:25.926Z,5.75
2022-12-08T16:07:19.591Z,5.86
2022-12-08T16:09:43.557Z,6.24
2022-12-08T16:18:28.165Z,6.37
2022-12-08T16:21:13.303Z,6.37
2022-12-08T16:23:47.139Z,6.51
2022-12-08T16:27:50.722Z,6.39
2022-12-08T16:29:17.332Z,6.52
2022-12-08T16:31:45.028Z,6.65
2022-12-08T16:34:12.936Z,6.47
2022-12-08T16:36:40.569Z,6.50
2022-12-08T16:39:13.601Z,6.47
2022-12-08T16:41:59.960Z,6.52
2022-12-08T16:44:27.755Z,6.55
2022-12-08T16:46:55.473Z,6.62
2022-12-08T16:49:26.367Z,6.51
2022-12-08T16:51:54.507Z,6.58
2022-12-08T16:54:22.673Z,6.49
2022-12-08T16:56:50.880Z,6.43
2022-12-08T16:59:21.878Z,6.48
2022-12-08T17:02:22.989Z,6.32
2022-12-08T17:04:50.975Z,6.43
2022-12-08T17:07:19.274Z,6.46
2022-12-08T17:09:49.171Z,6.48
2022-12-08T17:12:20.538Z,6.28
2022-12-08T17:14:48.748Z,6.31
2022-12-08T17:17:19.692Z,6.50
2022-12-08T17:19:47.762Z,6.45
2022-12-08T17:22:20.975Z,6.46
2022-12-08T17:24:55.830Z,6.37
2022-12-08T17:27:27.546Z,6.52
2022-12-08T17:30:02.432Z,6.58
2022-12-08T17:32:37.529Z,6.55
2022-12-08T17:35:08.752Z,6.44
2022-12-08T17:37:36.896Z,6.50
2022-12-08T17:40:26.872Z,6.12
2022-12-08T17:43:26.780Z,6.02
2022-12-08T17:45:56.228Z,5.96
2022-12-08T17:48:26.163Z,6.18
2022-12-08T17:50:58.731Z,6.09
2022-12-08T17:53:26.756Z,6.22
2022-12-08T18:02:43.982Z,6.34
2022-12-08T18:16:05.949Z,6.28
2022-12-08T18:45:45.445Z,6.02
2022-12-08T18:48:13.082Z,6.11
2022-12-08T18:50:46.035Z,6.07
2022-12-08T18:53:14.167Z,5.57
2022-12-08T18:55:41.882Z,5.79
2022-12-08T18:58:10.845Z,5.82
2022-12-08T19:00:38.411Z,5.85
2022-12-08T19:03:07.228Z,5.88
2022-12-08T19:05:35.141Z,5.81
2022-12-08T19:08:03.417Z,5.79
2022-12-08T19:10:32.136Z,5.70
2022-12-08T19:13:00.003Z,5.62
2022-12-08T19:15:27.825Z,5.65
2022-12-08T19:17:55.889Z,5.56
2022-12-08T19:20:23.709Z,5.57
2022-12-08T19:22:51.381Z,5.55
2022-12-08T19:25:19.128Z,5.46
2022-12-08T19:27:46.872Z,5.55
2022-12-08T19:30:15.376Z,5.26
2022-12-08T19:32:42.964Z,5.29
2022-12-08T19:35:10.819Z,5.24
2022-12-08T19:37:38.449Z,5.06
2022-12-08T19:40:25.813Z,4.35
2022-12-08T19:43:11.877Z,4.62
2022-12-08T19:45:39.720Z,4.21
2022-12-08T19:48:07.495Z,4.32
2022-12-08T19:50:38.457Z,4.40
2022-12-08T19:53:15.482Z,4.41
2022-12-08T19:55:44.544Z,4.32
2022-12-08T19:58:12.357Z,4.24
2022-12-08T20:00:41.811Z,4.18
2022-12-08T20:03:14.526Z,4.15
2022-12-08T20:05:43.252Z,4.13
2022-12-08T20:08:11.357Z,4.07
2022-12-08T20:10:42.976Z,4.06
2022-12-08T20:14:12.729Z,3.98
2022-12-08T20:16:50.620Z,3.82
2022-12-08T20:19:18.526Z,3.81
2022-12-08T20:21:48.885Z,3.71
2022-12-08T20:24:17.965Z,3.66
2022-12-08T20:27:11.073Z,3.17
2022-12-08T20:29:38.970Z,3.15
2022-12-08T20:32:07.096Z,3.06
2022-12-08T20:34:35.087Z,3.18
2022-12-08T20:37:03.166Z,3.26
2022-12-08T20:39:30.890Z,3.21
2022-12-08T20:42:00.033Z,3.20
2022-12-08T20:44:30.974Z,3.11
2022-12-08T20:46:58.688Z,3.12
2022-12-08T20:49:31.266Z,3.08
2022-12-08T20:52:02.248Z,3.02
2022-12-08T20:54:30.061Z,2.89
2022-12-08T20:56:57.863Z,2.69
2022-12-08T20:59:26.718Z,2.76
2022-12-08T21:01:55.086Z,2.78
2022-12-08T21:04:23.721Z,2.68
2022-12-08T21:06:51.863Z,2.65
2022-12-08T21:09:20.056Z,2.59
2022-12-08T21:11:48.126Z,2.53
2022-12-08T21:14:21.749Z,2.55
2022-12-08T21:16:51.034Z,2.52
2022-12-08T21:19:19.862Z,2.56
2022-12-08T21:21:50.508Z,2.49
2022-12-08T21:24:19.351Z,2.40
2022-12-08T21:26:47.412Z,2.34
2022-12-08T21:29:15.231Z,2.36
2022-12-08T21:31:42.938Z,2.36
2022-12-08T21:34:11.507Z,2.23
2022-12-08T21:36:39.438Z,2.17
2022-12-08T21:39:12.700Z,2.11
2022-12-08T21:41:59.524Z,2.15
2022-12-08T21:44:27.500Z,2.09
2022-12-08T21:46:55.260Z,2.14
2022-12-08T21:49:22.990Z,2.07
2022-12-08T21:51:50.979Z,2.04
2022-12-08T21:54:19.593Z,1.94
2022-12-08T21:56:49.739Z,1.91
2022-12-08T21:59:18.838Z,1.87
2022-12-08T22:01:47.019Z,1.80
2022-12-08T22:04:19.068Z,1.79
2022-12-08T22:06:47.421Z,1.73
2022-12-08T22:09:15.869Z,1.70
2022-12-08T22:11:44.865Z,1.65
2022-12-08T22:14:14.902Z,1.68
2022-12-08T22:16:48.386Z,1.73
2022-12-08T22:19:16.674Z,1.63
2022-12-08T22:21:44.743Z,1.64
2022-12-08T22:24:12.617Z,1.64
2022-12-08T22:26:40.266Z,1.67
2022-12-08T22:29:08.906Z,1.64
2022-12-08T22:31:37.065Z,1.60
2022-12-08T22:34:04.759Z,1.58
2022-12-08T22:36:33.294Z,1.61
2022-12-08T22:39:02.705Z,1.59
2022-12-08T22:41:31.041Z,1.58
2022-12-08T22:43:58.708Z,1.59
2022-12-08T22:46:27.900Z,1.55
2022-12-08T22:48:55.803Z,1.57
2022-12-08T22:51:24.340Z,1.47
2022-12-08T22:53:52.291Z,1.46
2022-12-08T22:56:20.717Z,1.48
2022-12-08T22:58:48.698Z,1.49
2022-12-08T23:01:37.433Z,1.41
2022-12-08T23:04:05.735Z,1.38
2022-12-08T23:06:33.968Z,1.35
2022-12-08T23:09:01.995Z,1.32
2022-12-08T23:11:30.913Z,1.27
2022-12-08T23:14:03.040Z,1.25
2022-12-08T23:16:31.226Z,1.23
2022-12-08T23:18:59.668Z,1.21
2022-12-08T23:21:27.618Z,1.11
2022-12-08T23:23:55.406Z,1.14
2022-12-08T23:26:30.066Z,1.15
2022-12-08T23:28:58.590Z,1.08
2022-12-08T23:31:27.246Z,1.07
2022-12-08T23:33:55.549Z,1.09
2022-12-08T23:36:27.453Z,1.03
2022-12-08T23:38:55.868Z,1.13
2022-12-08T23:41:23.481Z,1.06
2022-12-08T23:44:16.879Z,0.93
2022-12-08T23:46:44.545Z,1.01
2022-12-08T23:49:12.783Z,0.98
2022-12-08T23:51:40.994Z,1.02
2022-12-08T23:54:09.337Z,0.98
2022-12-08T23:56:37.059Z,0.99
2022-12-08T23:59:04.826Z,1.02
